Overview Statistics Trail Chart Weather Telemetry Raw packets
 

This is the latest recevied weather packets stored in our database for station/object KQ4KX. If no packets are shown the sender has not sent any weather packets the latest 10 day(s).

<< 86 87 88 89 90 91 92 >>
Time Temp. Humidity Pressure Rain* Wind** Luminosity Snow
1787949841 25.56° C 93% 1017.5 hPa 1.27 mm - - -
1787949671 25.56° C 93% 1017.5 hPa 1.27 mm - - -
1787949511 25.56° C 93% 1017 hPa 1.02 mm - - -
1787949375 25.56° C 93% 1017 hPa 1.02 mm - - -
1787949070 25.56° C 91% 1017 hPa 1.02 mm - - -
1787948771 25.56° C 88% 1017 hPa 0.25 mm - - -
1787948635 26.11° C 86% 1016.9 hPa 0.25 mm - - -
1787948471 26.11° C 86% 1016.9 hPa 0.25 mm - - -
1787948004 26.67° C 81% 1016.6 hPa 0 mm - - -
1787947870 26.67° C 81% 1016.6 hPa 0 mm - - -
1787947636 27.22° C 80% 1016.6 hPa 0 mm - - -
1787947540 27.22° C 80% 1016.6 hPa 0 mm - - -
1787947338 28.89° C 81% 1016.7 hPa 0 mm - - -
1787947242 28.89° C 81% 1016.7 hPa 0 mm - - -
1787946340 32.22° C 67% 1016.6 hPa 0 mm - - -
1787946040 32.78° C 68% 1016.5 hPa 0 mm - - -
1787945410 33.33° C 67% 1016.6 hPa 0 mm - - -
1787945110 33.33° C 66% 1016.5 hPa 0 mm - - -
1787944452 33.33° C 66% 1016.3 hPa 0 mm - - -
1787944210 33.33° C 66% 1016.3 hPa 0 mm - - -
1787943756 33.33° C 66% 1016.4 hPa 0 mm - - -
1787943580 33.33° C 66% 1016.4 hPa 0 mm - - -
1787943280 33.33° C 65% 1016.5 hPa 0 mm - - -
1787942980 33.33° C 67% 1016.6 hPa 0 mm - - -
1787942650 33.33° C 67% 1016.7 hPa 0 mm - - -

* Rain latest hour (hover to see other rain measurements)
** Current wind speed in m/s (hover to see current wind gust speed)